sensor_id;sensor_type;location;lat;lon;timestamp;P1;durP1;ratioP1;P2;durP2;ratioP2
8177;SDS011;4130;48.740;9.132;2023-02-01T00:01:45;2.17;;;2.03;;
8177;SDS011;4130;48.740;9.132;2023-02-01T00:04:12;2.03;;;1.80;;
8177;SDS011;4130;48.740;9.132;2023-02-01T00:06:39;2.50;;;1.90;;
8177;SDS011;4130;48.740;9.132;2023-02-01T00:09:06;1.90;;;1.77;;
8177;SDS011;4130;48.740;9.132;2023-02-01T00:11:32;2.13;;;1.93;;
8177;SDS011;4130;48.740;9.132;2023-02-01T00:14:01;2.43;;;2.20;;
8177;SDS011;4130;48.740;9.132;2023-02-01T00:16:28;2.20;;;1.80;;
8177;SDS011;4130;48.740;9.132;2023-02-01T00:18:57;1.70;;;1.60;;
8177;SDS011;4130;48.740;9.132;2023-02-01T00:21:25;1.70;;;1.60;;
8177;SDS011;4130;48.740;9.132;2023-02-01T00:23:53;2.80;;;2.10;;
8177;SDS011;4130;48.740;9.132;2023-02-01T00:26:20;1.77;;;1.60;;
8177;SDS011;4130;48.740;9.132;2023-02-01T00:28:52;1.90;;;1.80;;
8177;SDS011;4130;48.740;9.132;2023-02-01T00:31:20;2.10;;;1.90;;
8177;SDS011;4130;48.740;9.132;2023-02-01T00:33:47;2.23;;;2.03;;
8177;SDS011;4130;48.740;9.132;2023-02-01T00:36:14;2.70;;;2.23;;
8177;SDS011;4130;48.740;9.132;2023-02-01T00:38:42;2.33;;;1.97;;
8177;SDS011;4130;48.740;9.132;2023-02-01T00:41:11;2.10;;;1.90;;
8177;SDS011;4130;48.740;9.132;2023-02-01T00:43:39;2.07;;;1.97;;
8177;SDS011;4130;48.740;9.132;2023-02-01T00:46:06;2.10;;;1.90;;
8177;SDS011;4130;48.740;9.132;2023-02-01T00:48:36;2.30;;;2.10;;
8177;SDS011;4130;48.740;9.132;2023-02-01T00:51:03;1.70;;;1.60;;
8177;SDS011;4130;48.740;9.132;2023-02-01T00:53:31;2.33;;;1.77;;
8177;SDS011;4130;48.740;9.132;2023-02-01T00:55:59;1.70;;;1.60;;
8177;SDS011;4130;48.740;9.132;2023-02-01T00:58:26;2.23;;;1.90;;
8177;SDS011;4130;48.740;9.132;2023-02-01T01:01:00;1.70;;;1.60;;
8177;SDS011;4130;48.740;9.132;2023-02-01T01:03:28;1.60;;;1.50;;
8177;SDS011;4130;48.740;9.132;2023-02-01T01:05:59;2.17;;;1.60;;
8177;SDS011;4130;48.740;9.132;2023-02-01T01:08:27;2.00;;;1.80;;
8177;SDS011;4130;48.740;9.132;2023-02-01T01:10:54;1.73;;;1.63;;
8177;SDS011;4130;48.740;9.132;2023-02-01T01:13:21;1.40;;;1.30;;
8177;SDS011;4130;48.740;9.132;2023-02-01T01:15:49;1.73;;;1.63;;
8177;SDS011;4130;48.740;9.132;2023-02-01T01:18:15;2.13;;;1.70;;
8177;SDS011;4130;48.740;9.132;2023-02-01T01:20:42;1.60;;;1.50;;
8177;SDS011;4130;48.740;9.132;2023-02-01T01:23:10;1.73;;;1.60;;
8177;SDS011;4130;48.740;9.132;2023-02-01T01:25:37;1.60;;;1.50;;
8177;SDS011;4130;48.740;9.132;2023-02-01T01:28:05;2.23;;;1.70;;
8177;SDS011;4130;48.740;9.132;2023-02-01T01:30:32;1.23;;;1.13;;
8177;SDS011;4130;48.740;9.132;2023-02-01T01:32:59;1.53;;;1.40;;
8177;SDS011;4130;48.740;9.132;2023-02-01T01:35:28;4.83;;;1.70;;
8177;SDS011;4130;48.740;9.132;2023-02-01T01:37:55;2.03;;;1.40;;
8177;SDS011;4130;48.740;9.132;2023-02-01T01:40:23;1.27;;;1.17;;
8177;SDS011;4130;48.740;9.132;2023-02-01T01:42:50;1.17;;;1.07;;
8177;SDS011;4130;48.740;9.132;2023-02-01T01:45:21;2.40;;;1.60;;
8177;SDS011;4130;48.740;9.132;2023-02-01T01:47:51;1.80;;;1.30;;
8177;SDS011;4130;48.740;9.132;2023-02-01T01:50:21;1.60;;;1.50;;
8177;SDS011;4130;48.740;9.132;2023-02-01T01:52:51;1.30;;;1.30;;
8177;SDS011;4130;48.740;9.132;2023-02-01T01:55:20;1.97;;;1.27;;
8177;SDS011;4130;48.740;9.132;2023-02-01T01:57:52;1.47;;;1.30;;
8177;SDS011;4130;48.740;9.132;2023-02-01T02:00:23;1.67;;;1.50;;
8177;SDS011;4130;48.740;9.132;2023-02-01T02:02:52;1.40;;;1.30;;
8177;SDS011;4130;48.740;9.132;2023-02-01T02:05:22;1.53;;;1.20;;
8177;SDS011;4130;48.740;9.132;2023-02-01T02:07:50;1.30;;;1.20;;
8177;SDS011;4130;48.740;9.132;2023-02-01T02:10:19;1.53;;;1.43;;
8177;SDS011;4130;48.740;9.132;2023-02-01T02:13:07;1.70;;;1.50;;
8177;SDS011;4130;48.740;9.132;2023-02-01T02:15:34;1.70;;;1.50;;
8177;SDS011;4130;48.740;9.132;2023-02-01T02:18:08;1.90;;;1.60;;
8177;SDS011;4130;48.740;9.132;2023-02-01T02:20:52;1.40;;;1.30;;
8177;SDS011;4130;48.740;9.132;2023-02-01T02:26:44;1.83;;;1.60;;
8177;SDS011;4130;48.740;9.132;2023-02-01T02:29:37;1.80;;;1.37;;
8177;SDS011;4130;48.740;9.132;2023-02-01T02:32:39;2.37;;;1.47;;
8177;SDS011;4130;48.740;9.132;2023-02-01T02:35:23;1.70;;;1.60;;
8177;SDS011;4130;48.740;9.132;2023-02-01T02:37:57;1.63;;;1.53;;
8177;SDS011;4130;48.740;9.132;2023-02-01T02:40:32;1.77;;;1.60;;
8177;SDS011;4130;48.740;9.132;2023-02-01T02:43:04;1.70;;;1.60;;
8177;SDS011;4130;48.740;9.132;2023-02-01T02:45:54;1.53;;;1.43;;
8177;SDS011;4130;48.740;9.132;2023-02-01T02:48:58;1.50;;;1.40;;
8177;SDS011;4130;48.740;9.132;2023-02-01T02:51:32;2.87;;;1.80;;
8177;SDS011;4130;48.740;9.132;2023-02-01T02:54:22;1.40;;;1.30;;
8177;SDS011;4130;48.740;9.132;2023-02-01T02:57:10;1.60;;;1.50;;
8177;SDS011;4130;48.740;9.132;2023-02-01T02:59:59;1.53;;;1.43;;
8177;SDS011;4130;48.740;9.132;2023-02-01T03:02:45;1.10;;;1.10;;
8177;SDS011;4130;48.740;9.132;2023-02-01T03:05:33;1.37;;;1.27;;
8177;SDS011;4130;48.740;9.132;2023-02-01T03:08:03;1.20;;;1.20;;
8177;SDS011;4130;48.740;9.132;2023-02-01T03:10:37;2.07;;;1.50;;
8177;SDS011;4130;48.740;9.132;2023-02-01T03:13:11;3.07;;;1.80;;
8177;SDS011;4130;48.740;9.132;2023-02-01T03:15:41;1.60;;;1.50;;
8177;SDS011;4130;48.740;9.132;2023-02-01T03:18:13;1.53;;;1.43;;
8177;SDS011;4130;48.740;9.132;2023-02-01T03:20:44;1.37;;;1.30;;
8177;SDS011;4130;48.740;9.132;2023-02-01T03:23:17;1.40;;;1.30;;
8177;SDS011;4130;48.740;9.132;2023-02-01T03:25:46;1.50;;;1.40;;
8177;SDS011;4130;48.740;9.132;2023-02-01T03:28:14;1.83;;;1.70;;
8177;SDS011;4130;48.740;9.132;2023-02-01T03:30:46;1.60;;;1.50;;
8177;SDS011;4130;48.740;9.132;2023-02-01T03:33:16;1.67;;;1.57;;
8177;SDS011;4130;48.740;9.132;2023-02-01T03:35:50;2.00;;;1.50;;
8177;SDS011;4130;48.740;9.132;2023-02-01T03:38:25;1.43;;;1.33;;
8177;SDS011;4130;48.740;9.132;2023-02-01T03:40:57;2.07;;;1.70;;
8177;SDS011;4130;48.740;9.132;2023-02-01T03:43:29;1.70;;;1.60;;
8177;SDS011;4130;48.740;9.132;2023-02-01T03:46:02;1.37;;;1.27;;
8177;SDS011;4130;48.740;9.132;2023-02-01T03:48:33;1.50;;;1.40;;
8177;SDS011;4130;48.740;9.132;2023-02-01T03:51:02;1.70;;;1.60;;
8177;SDS011;4130;48.740;9.132;2023-02-01T03:53:33;1.87;;;1.67;;
8177;SDS011;4130;48.740;9.132;2023-02-01T03:58:36;1.90;;;1.47;;
8177;SDS011;4130;48.740;9.132;2023-02-01T04:01:03;1.90;;;1.50;;
8177;SDS011;4130;48.740;9.132;2023-02-01T04:03:30;1.40;;;1.30;;
8177;SDS011;4130;48.740;9.132;2023-02-01T04:05:57;1.80;;;1.70;;
8177;SDS011;4130;48.740;9.132;2023-02-01T04:08:23;1.70;;;1.60;;
8177;SDS011;4130;48.740;9.132;2023-02-01T04:10:52;1.50;;;1.40;;
8177;SDS011;4130;48.740;9.132;2023-02-01T04:13:18;2.93;;;2.00;;
8177;SDS011;4130;48.740;9.132;2023-02-01T04:15:46;1.73;;;1.60;;
8177;SDS011;4130;48.740;9.132;2023-02-01T04:18:14;1.70;;;1.60;;
8177;SDS011;4130;48.740;9.132;2023-02-01T04:20:42;1.50;;;1.40;;
8177;SDS011;4130;48.740;9.132;2023-02-01T04:23:09;1.70;;;1.60;;
8177;SDS011;4130;48.740;9.132;2023-02-01T04:25:35;1.77;;;1.67;;
8177;SDS011;4130;48.740;9.132;2023-02-01T04:28:03;1.60;;;1.50;;
8177;SDS011;4130;48.740;9.132;2023-02-01T04:30:31;1.50;;;1.40;;
8177;SDS011;4130;48.740;9.132;2023-02-01T04:32:58;1.80;;;1.70;;
8177;SDS011;4130;48.740;9.132;2023-02-01T04:35:25;1.93;;;1.77;;
8177;SDS011;4130;48.740;9.132;2023-02-01T04:37:52;1.70;;;1.60;;
8177;SDS011;4130;48.740;9.132;2023-02-01T04:40:18;3.13;;;1.70;;
8177;SDS011;4130;48.740;9.132;2023-02-01T04:42:45;1.60;;;1.50;;
8177;SDS011;4130;48.740;9.132;2023-02-01T04:45:13;1.60;;;1.50;;
8177;SDS011;4130;48.740;9.132;2023-02-01T04:47:40;1.47;;;1.37;;
8177;SDS011;4130;48.740;9.132;2023-02-01T04:50:07;1.80;;;1.70;;
8177;SDS011;4130;48.740;9.132;2023-02-01T04:52:35;3.00;;;1.50;;
8177;SDS011;4130;48.740;9.132;2023-02-01T04:55:03;1.40;;;1.30;;
8177;SDS011;4130;48.740;9.132;2023-02-01T04:57:30;1.60;;;1.50;;
8177;SDS011;4130;48.740;9.132;2023-02-01T04:59:57;2.27;;;1.67;;
8177;SDS011;4130;48.740;9.132;2023-02-01T05:02:25;1.67;;;1.57;;
8177;SDS011;4130;48.740;9.132;2023-02-01T05:04:52;1.53;;;1.43;;
8177;SDS011;4130;48.740;9.132;2023-02-01T05:07:20;1.50;;;1.40;;
8177;SDS011;4130;48.740;9.132;2023-02-01T05:09:47;1.57;;;1.47;;
8177;SDS011;4130;48.740;9.132;2023-02-01T05:12:14;1.50;;;1.40;;
8177;SDS011;4130;48.740;9.132;2023-02-01T05:14:58;1.33;;;1.23;;
8177;SDS011;4130;48.740;9.132;2023-02-01T05:17:26;1.40;;;1.30;;
8177;SDS011;4130;48.740;9.132;2023-02-01T05:19:53;1.57;;;1.47;;
8177;SDS011;4130;48.740;9.132;2023-02-01T05:22:19;1.50;;;1.40;;
8177;SDS011;4130;48.740;9.132;2023-02-01T05:24:46;1.57;;;1.47;;
8177;SDS011;4130;48.740;9.132;2023-02-01T05:27:13;1.70;;;1.50;;
8177;SDS011;4130;48.740;9.132;2023-02-01T05:29:39;1.70;;;1.60;;
8177;SDS011;4130;48.740;9.132;2023-02-01T05:32:06;1.40;;;1.30;;
8177;SDS011;4130;48.740;9.132;2023-02-01T05:34:37;1.40;;;1.30;;
8177;SDS011;4130;48.740;9.132;2023-02-01T05:37:03;2.27;;;1.50;;
8177;SDS011;4130;48.740;9.132;2023-02-01T05:39:30;2.53;;;1.37;;
8177;SDS011;4130;48.740;9.132;2023-02-01T05:41:57;1.50;;;1.40;;
8177;SDS011;4130;48.740;9.132;2023-02-01T05:44:24;1.30;;;1.20;;
8177;SDS011;4130;48.740;9.132;2023-02-01T05:46:50;4.13;;;1.63;;
8177;SDS011;4130;48.740;9.132;2023-02-01T05:49:18;2.57;;;1.40;;
8177;SDS011;4130;48.740;9.132;2023-02-01T05:51:46;1.20;;;1.20;;
8177;SDS011;4130;48.740;9.132;2023-02-01T05:54:12;1.37;;;1.20;;
8177;SDS011;4130;48.740;9.132;2023-02-01T05:56:39;1.13;;;1.13;;
8177;SDS011;4130;48.740;9.132;2023-02-01T05:59:06;1.40;;;1.30;;
8177;SDS011;4130;48.740;9.132;2023-02-01T06:01:33;1.93;;;1.30;;
8177;SDS011;4130;48.740;9.132;2023-02-01T06:04:00;1.17;;;1.10;;
8177;SDS011;4130;48.740;9.132;2023-02-01T06:06:27;1.57;;;1.43;;
8177;SDS011;4130;48.740;9.132;2023-02-01T06:08:55;0.80;;;0.80;;
8177;SDS011;4130;48.740;9.132;2023-02-01T06:11:22;1.07;;;1.07;;
8177;SDS011;4130;48.740;9.132;2023-02-01T06:13:48;1.10;;;1.10;;
8177;SDS011;4130;48.740;9.132;2023-02-01T06:16:15;1.20;;;1.10;;
8177;SDS011;4130;48.740;9.132;2023-02-01T06:18:42;0.97;;;0.97;;
8177;SDS011;4130;48.740;9.132;2023-02-01T06:21:08;1.30;;;1.20;;
8177;SDS011;4130;48.740;9.132;2023-02-01T06:23:35;1.10;;;1.10;;
8177;SDS011;4130;48.740;9.132;2023-02-01T06:26:04;1.30;;;1.20;;
8177;SDS011;4130;48.740;9.132;2023-02-01T06:28:33;1.60;;;1.50;;
8177;SDS011;4130;48.740;9.132;2023-02-01T06:31:02;1.37;;;1.23;;
8177;SDS011;4130;48.740;9.132;2023-02-01T06:33:31;1.67;;;1.30;;
8177;SDS011;4130;48.740;9.132;2023-02-01T06:35:59;1.30;;;1.20;;
8177;SDS011;4130;48.740;9.132;2023-02-01T06:38:28;1.40;;;1.30;;
8177;SDS011;4130;48.740;9.132;2023-02-01T06:40:56;1.27;;;1.17;;
8177;SDS011;4130;48.740;9.132;2023-02-01T06:43:25;1.60;;;1.30;;
8177;SDS011;4130;48.740;9.132;2023-02-01T06:45:53;1.23;;;1.20;;
8177;SDS011;4130;48.740;9.132;2023-02-01T06:48:20;1.97;;;1.40;;
8177;SDS011;4130;48.740;9.132;2023-02-01T06:50:46;1.87;;;1.37;;
8177;SDS011;4130;48.740;9.132;2023-02-01T06:53:13;3.03;;;1.60;;
8177;SDS011;4130;48.740;9.132;2023-02-01T06:55:40;1.60;;;1.50;;
8177;SDS011;4130;48.740;9.132;2023-02-01T06:58:07;1.60;;;1.50;;
8177;SDS011;4130;48.740;9.132;2023-02-01T07:00:35;2.23;;;1.47;;
8177;SDS011;4130;48.740;9.132;2023-02-01T07:03:01;2.07;;;1.87;;
8177;SDS011;4130;48.740;9.132;2023-02-01T07:05:28;2.10;;;1.70;;
8177;SDS011;4130;48.740;9.132;2023-02-01T07:07:55;1.70;;;1.60;;
8177;SDS011;4130;48.740;9.132;2023-02-01T07:10:22;4.17;;;1.60;;
8177;SDS011;4130;48.740;9.132;2023-02-01T07:12:49;2.30;;;1.50;;
8177;SDS011;4130;48.740;9.132;2023-02-01T07:15:15;3.20;;;1.70;;
8177;SDS011;4130;48.740;9.132;2023-02-01T07:17:43;1.97;;;1.40;;
8177;SDS011;4130;48.740;9.132;2023-02-01T07:20:12;1.80;;;1.40;;
8177;SDS011;4130;48.740;9.132;2023-02-01T07:22:38;1.60;;;1.50;;
8177;SDS011;4130;48.740;9.132;2023-02-01T07:25:05;1.90;;;1.40;;
8177;SDS011;4130;48.740;9.132;2023-02-01T07:27:33;2.67;;;1.43;;
8177;SDS011;4130;48.740;9.132;2023-02-01T07:30:00;2.10;;;1.67;;
8177;SDS011;4130;48.740;9.132;2023-02-01T07:32:27;1.50;;;1.40;;
8177;SDS011;4130;48.740;9.132;2023-02-01T07:34:56;3.03;;;2.50;;
8177;SDS011;4130;48.740;9.132;2023-02-01T07:37:23;2.33;;;1.70;;
8177;SDS011;4130;48.740;9.132;2023-02-01T07:39:50;2.57;;;1.60;;
8177;SDS011;4130;48.740;9.132;2023-02-01T07:42:17;1.60;;;1.50;;
8177;SDS011;4130;48.740;9.132;2023-02-01T07:44:43;1.50;;;1.40;;
8177;SDS011;4130;48.740;9.132;2023-02-01T07:47:10;2.23;;;1.50;;
8177;SDS011;4130;48.740;9.132;2023-02-01T07:49:37;3.27;;;1.70;;
8177;SDS011;4130;48.740;9.132;2023-02-01T07:52:05;3.47;;;1.60;;
8177;SDS011;4130;48.740;9.132;2023-02-01T07:54:32;1.60;;;1.50;;
8177;SDS011;4130;48.740;9.132;2023-02-01T07:56:58;1.47;;;1.37;;
8177;SDS011;4130;48.740;9.132;2023-02-01T07:59:25;1.60;;;1.50;;
8177;SDS011;4130;48.740;9.132;2023-02-01T08:01:52;1.53;;;1.43;;
8177;SDS011;4130;48.740;9.132;2023-02-01T08:04:18;1.73;;;1.37;;
8177;SDS011;4130;48.740;9.132;2023-02-01T08:06:44;2.67;;;1.80;;
8177;SDS011;4130;48.740;9.132;2023-02-01T08:09:13;1.57;;;1.47;;
8177;SDS011;4130;48.740;9.132;2023-02-01T08:11:40;2.13;;;1.30;;
8177;SDS011;4130;48.740;9.132;2023-02-01T08:14:06;1.77;;;1.50;;
8177;SDS011;4130;48.740;9.132;2023-02-01T08:16:33;1.57;;;1.47;;
8177;SDS011;4130;48.740;9.132;2023-02-01T08:19:02;2.30;;;1.50;;
8177;SDS011;4130;48.740;9.132;2023-02-01T08:21:29;2.27;;;1.67;;
8177;SDS011;4130;48.740;9.132;2023-02-01T08:24:01;2.20;;;1.60;;
8177;SDS011;4130;48.740;9.132;2023-02-01T08:26:31;1.93;;;1.70;;
8177;SDS011;4130;48.740;9.132;2023-02-01T08:28:58;3.27;;;1.60;;
8177;SDS011;4130;48.740;9.132;2023-02-01T08:31:27;2.57;;;1.80;;
8177;SDS011;4130;48.740;9.132;2023-02-01T08:33:55;1.73;;;1.63;;
8177;SDS011;4130;48.740;9.132;2023-02-01T08:36:23;2.07;;;1.50;;
8177;SDS011;4130;48.740;9.132;2023-02-01T08:38:51;1.67;;;1.50;;
8177;SDS011;4130;48.740;9.132;2023-02-01T08:41:18;3.50;;;1.77;;
8177;SDS011;4130;48.740;9.132;2023-02-01T08:43:48;2.00;;;1.50;;
8177;SDS011;4130;48.740;9.132;2023-02-01T08:46:15;1.90;;;1.73;;
8177;SDS011;4130;48.740;9.132;2023-02-01T08:48:42;2.57;;;1.83;;
8177;SDS011;4130;48.740;9.132;2023-02-01T08:51:12;5.80;;;2.20;;
8177;SDS011;4130;48.740;9.132;2023-02-01T08:53:39;3.80;;;1.73;;
8177;SDS011;4130;48.740;9.132;2023-02-01T08:56:07;3.10;;;1.80;;
8177;SDS011;4130;48.740;9.132;2023-02-01T08:58:35;2.50;;;1.80;;
8177;SDS011;4130;48.740;9.132;2023-02-01T09:01:04;3.13;;;1.70;;
8177;SDS011;4130;48.740;9.132;2023-02-01T09:03:32;2.17;;;1.53;;
8177;SDS011;4130;48.740;9.132;2023-02-01T09:05:59;1.90;;;1.70;;
8177;SDS011;4130;48.740;9.132;2023-02-01T09:08:26;4.57;;;2.50;;
8177;SDS011;4130;48.740;9.132;2023-02-01T09:10:53;2.73;;;1.70;;
8177;SDS011;4130;48.740;9.132;2023-02-01T09:13:23;3.13;;;1.90;;
8177;SDS011;4130;48.740;9.132;2023-02-01T09:15:50;2.70;;;1.63;;
8177;SDS011;4130;48.740;9.132;2023-02-01T09:18:19;2.20;;;1.60;;
8177;SDS011;4130;48.740;9.132;2023-02-01T09:20:45;8.20;;;2.97;;
8177;SDS011;4130;48.740;9.132;2023-02-01T09:23:12;4.10;;;1.90;;
8177;SDS011;4130;48.740;9.132;2023-02-01T09:25:39;3.20;;;1.67;;
8177;SDS011;4130;48.740;9.132;2023-02-01T09:28:06;3.77;;;1.87;;
8177;SDS011;4130;48.740;9.132;2023-02-01T09:30:34;3.87;;;1.90;;
8177;SDS011;4130;48.740;9.132;2023-02-01T09:33:01;4.63;;;1.90;;
8177;SDS011;4130;48.740;9.132;2023-02-01T09:35:29;6.33;;;1.80;;
8177;SDS011;4130;48.740;9.132;2023-02-01T09:37:56;4.73;;;1.77;;
8177;SDS011;4130;48.740;9.132;2023-02-01T09:40:23;6.23;;;1.83;;
8177;SDS011;4130;48.740;9.132;2023-02-01T09:42:59;3.27;;;1.57;;
8177;SDS011;4130;48.740;9.132;2023-02-01T09:45:43;2.70;;;1.57;;
8177;SDS011;4130;48.740;9.132;2023-02-01T09:48:18;6.33;;;2.03;;
8177;SDS011;4130;48.740;9.132;2023-02-01T09:50:51;3.17;;;1.40;;
8177;SDS011;4130;48.740;9.132;2023-02-01T09:53:21;7.20;;;2.10;;
8177;SDS011;4130;48.740;9.132;2023-02-01T09:55:53;2.77;;;2.07;;
8177;SDS011;4130;48.740;9.132;2023-02-01T09:58:24;6.53;;;2.00;;
8177;SDS011;4130;48.740;9.132;2023-02-01T10:00:57;5.40;;;1.57;;
8177;SDS011;4130;48.740;9.132;2023-02-01T10:03:26;7.00;;;1.93;;
8177;SDS011;4130;48.740;9.132;2023-02-01T10:06:01;3.47;;;1.87;;
8177;SDS011;4130;48.740;9.132;2023-02-01T10:08:59;3.77;;;1.60;;
8177;SDS011;4130;48.740;9.132;2023-02-01T10:11:42;4.50;;;1.77;;
8177;SDS011;4130;48.740;9.132;2023-02-01T10:17:09;5.67;;;2.00;;
8177;SDS011;4130;48.740;9.132;2023-02-01T10:19:44;2.60;;;1.13;;
8177;SDS011;4130;48.740;9.132;2023-02-01T10:22:27;8.10;;;2.17;;
8177;SDS011;4130;48.740;9.132;2023-02-01T10:25:07;6.93;;;2.00;;
8177;SDS011;4130;48.740;9.132;2023-02-01T10:27:39;5.50;;;1.80;;
8177;SDS011;4130;48.740;9.132;2023-02-01T10:30:14;3.93;;;1.63;;
8177;SDS011;4130;48.740;9.132;2023-02-01T10:32:45;5.60;;;1.83;;
8177;SDS011;4130;48.740;9.132;2023-02-01T10:35:16;5.57;;;1.60;;
8177;SDS011;4130;48.740;9.132;2023-02-01T10:37:46;7.33;;;1.73;;
8177;SDS011;4130;48.740;9.132;2023-02-01T10:40:15;5.43;;;1.77;;
8177;SDS011;4130;48.740;9.132;2023-02-01T10:42:46;7.53;;;1.87;;
8177;SDS011;4130;48.740;9.132;2023-02-01T10:45:15;8.97;;;2.00;;
8177;SDS011;4130;48.740;9.132;2023-02-01T10:47:43;3.93;;;1.40;;
8177;SDS011;4130;48.740;9.132;2023-02-01T10:50:19;4.77;;;1.60;;
8177;SDS011;4130;48.740;9.132;2023-02-01T10:52:58;5.37;;;1.83;;
8177;SDS011;4130;48.740;9.132;2023-02-01T10:55:33;3.10;;;1.50;;
8177;SDS011;4130;48.740;9.132;2023-02-01T10:58:03;11.13;;;1.93;;
8177;SDS011;4130;48.740;9.132;2023-02-01T11:03:20;3.37;;;1.50;;
8177;SDS011;4130;48.740;9.132;2023-02-01T11:05:58;5.53;;;1.50;;
8177;SDS011;4130;48.740;9.132;2023-02-01T11:08:27;4.87;;;2.13;;
8177;SDS011;4130;48.740;9.132;2023-02-01T11:10:57;5.17;;;1.70;;
8177;SDS011;4130;48.740;9.132;2023-02-01T11:13:28;5.80;;;1.67;;
8177;SDS011;4130;48.740;9.132;2023-02-01T11:15:56;5.40;;;1.50;;
8177;SDS011;4130;48.740;9.132;2023-02-01T11:18:25;5.97;;;1.80;;
8177;SDS011;4130;48.740;9.132;2023-02-01T11:20:54;6.70;;;2.10;;
8177;SDS011;4130;48.740;9.132;2023-02-01T11:23:21;6.70;;;1.77;;
8177;SDS011;4130;48.740;9.132;2023-02-01T11:25:52;8.00;;;1.70;;
8177;SDS011;4130;48.740;9.132;2023-02-01T11:28:21;6.63;;;1.43;;
8177;SDS011;4130;48.740;9.132;2023-02-01T11:30:49;7.43;;;1.87;;
8177;SDS011;4130;48.740;9.132;2023-02-01T11:33:19;5.30;;;1.33;;
8177;SDS011;4130;48.740;9.132;2023-02-01T11:35:54;6.60;;;2.30;;
8177;SDS011;4130;48.740;9.132;2023-02-01T11:38:25;5.47;;;1.67;;
8177;SDS011;4130;48.740;9.132;2023-02-01T11:40:55;4.10;;;1.60;;
8177;SDS011;4130;48.740;9.132;2023-02-01T11:43:36;4.47;;;1.60;;
8177;SDS011;4130;48.740;9.132;2023-02-01T11:46:16;3.67;;;1.43;;
8177;SDS011;4130;48.740;9.132;2023-02-01T11:48:49;5.00;;;1.83;;
8177;SDS011;4130;48.740;9.132;2023-02-01T11:51:19;7.37;;;1.70;;
8177;SDS011;4130;48.740;9.132;2023-02-01T11:54:02;7.83;;;1.90;;
8177;SDS011;4130;48.740;9.132;2023-02-01T11:56:40;4.30;;;1.70;;
8177;SDS011;4130;48.740;9.132;2023-02-01T11:59:19;5.03;;;1.70;;
8177;SDS011;4130;48.740;9.132;2023-02-01T12:05:02;4.33;;;1.63;;
8177;SDS011;4130;48.740;9.132;2023-02-01T12:07:47;7.07;;;1.73;;
8177;SDS011;4130;48.740;9.132;2023-02-01T12:10:24;3.03;;;1.47;;
8177;SDS011;4130;48.740;9.132;2023-02-01T12:13:00;3.53;;;1.63;;
8177;SDS011;4130;48.740;9.132;2023-02-01T12:15:46;7.60;;;1.67;;
8177;SDS011;4130;48.740;9.132;2023-02-01T12:18:35;4.90;;;1.50;;
8177;SDS011;4130;48.740;9.132;2023-02-01T12:21:17;6.20;;;1.60;;
8177;SDS011;4130;48.740;9.132;2023-02-01T12:23:54;3.67;;;2.00;;
8177;SDS011;4130;48.740;9.132;2023-02-01T12:26:46;8.50;;;1.83;;
8177;SDS011;4130;48.740;9.132;2023-02-01T12:29:32;5.73;;;1.40;;
8177;SDS011;4130;48.740;9.132;2023-02-01T12:32:07;9.33;;;2.80;;
8177;SDS011;4130;48.740;9.132;2023-02-01T12:34:53;5.47;;;2.27;;
8177;SDS011;4130;48.740;9.132;2023-02-01T12:37:39;3.97;;;1.57;;
8177;SDS011;4130;48.740;9.132;2023-02-01T12:40:23;4.53;;;1.73;;
8177;SDS011;4130;48.740;9.132;2023-02-01T12:42:59;3.97;;;1.37;;
8177;SDS011;4130;48.740;9.132;2023-02-01T12:45:32;7.63;;;1.97;;
8177;SDS011;4130;48.740;9.132;2023-02-01T12:48:05;2.70;;;1.40;;
8177;SDS011;4130;48.740;9.132;2023-02-01T12:50:47;3.63;;;1.30;;
8177;SDS011;4130;48.740;9.132;2023-02-01T12:53:18;4.27;;;1.57;;
8177;SDS011;4130;48.740;9.132;2023-02-01T12:55:49;5.20;;;1.63;;
8177;SDS011;4130;48.740;9.132;2023-02-01T12:58:21;3.30;;;1.50;;
8177;SDS011;4130;48.740;9.132;2023-02-01T13:00:54;3.13;;;1.30;;
8177;SDS011;4130;48.740;9.132;2023-02-01T13:03:28;3.63;;;1.50;;
8177;SDS011;4130;48.740;9.132;2023-02-01T13:06:02;5.17;;;1.63;;
8177;SDS011;4130;48.740;9.132;2023-02-01T13:08:36;3.47;;;1.30;;
8177;SDS011;4130;48.740;9.132;2023-02-01T13:11:09;3.73;;;1.70;;
8177;SDS011;4130;48.740;9.132;2023-02-01T13:13:43;5.23;;;1.40;;
8177;SDS011;4130;48.740;9.132;2023-02-01T13:16:16;10.90;;;2.37;;
8177;SDS011;4130;48.740;9.132;2023-02-01T13:18:49;3.33;;;1.63;;
8177;SDS011;4130;48.740;9.132;2023-02-01T13:21:20;5.20;;;2.07;;
8177;SDS011;4130;48.740;9.132;2023-02-01T13:23:50;3.87;;;1.20;;
8177;SDS011;4130;48.740;9.132;2023-02-01T13:26:18;4.00;;;1.47;;
8177;SDS011;4130;48.740;9.132;2023-02-01T13:28:46;4.20;;;1.47;;
8177;SDS011;4130;48.740;9.132;2023-02-01T13:34:34;7.47;;;1.90;;
8177;SDS011;4130;48.740;9.132;2023-02-01T13:37:23;1.33;;;1.17;;
8177;SDS011;4130;48.740;9.132;2023-02-01T13:39:59;2.67;;;1.23;;
8177;SDS011;4130;48.740;9.132;2023-02-01T13:42:46;3.83;;;1.30;;
8177;SDS011;4130;48.740;9.132;2023-02-01T13:45:16;7.50;;;1.63;;
8177;SDS011;4130;48.740;9.132;2023-02-01T13:47:46;4.13;;;1.47;;
8177;SDS011;4130;48.740;9.132;2023-02-01T13:50:20;4.97;;;1.60;;
8177;SDS011;4130;48.740;9.132;2023-02-01T13:52:51;5.30;;;1.70;;
8177;SDS011;4130;48.740;9.132;2023-02-01T13:55:31;5.00;;;1.80;;
8177;SDS011;4130;48.740;9.132;2023-02-01T13:58:05;4.17;;;1.70;;
8177;SDS011;4130;48.740;9.132;2023-02-01T14:00:39;2.83;;;1.47;;
8177;SDS011;4130;48.740;9.132;2023-02-01T14:03:09;6.47;;;1.87;;
8177;SDS011;4130;48.740;9.132;2023-02-01T14:06:02;3.67;;;1.50;;
8177;SDS011;4130;48.740;9.132;2023-02-01T14:08:43;5.97;;;1.90;;
8177;SDS011;4130;48.740;9.132;2023-02-01T14:11:32;6.07;;;1.60;;
8177;SDS011;4130;48.740;9.132;2023-02-01T14:23:22;6.17;;;2.00;;
8177;SDS011;4130;48.740;9.132;2023-02-01T14:26:06;2.80;;;1.67;;
8177;SDS011;4130;48.740;9.132;2023-02-01T14:28:35;4.57;;;1.37;;
8177;SDS011;4130;48.740;9.132;2023-02-01T14:31:13;4.80;;;1.63;;
8177;SDS011;4130;48.740;9.132;2023-02-01T14:33:53;4.03;;;1.50;;
8177;SDS011;4130;48.740;9.132;2023-02-01T14:36:22;5.70;;;1.40;;
8177;SDS011;4130;48.740;9.132;2023-02-01T14:38:51;2.63;;;1.33;;
8177;SDS011;4130;48.740;9.132;2023-02-01T14:41:27;4.07;;;1.60;;
8177;SDS011;4130;48.740;9.132;2023-02-01T14:50:23;6.80;;;2.10;;
8177;SDS011;4130;48.740;9.132;2023-02-01T14:53:12;6.50;;;1.83;;
8177;SDS011;4130;48.740;9.132;2023-02-01T14:55:46;8.17;;;1.70;;
8177;SDS011;4130;48.740;9.132;2023-02-01T14:58:18;2.90;;;1.10;;
8177;SDS011;4130;48.740;9.132;2023-02-01T15:00:53;7.07;;;1.80;;
8177;SDS011;4130;48.740;9.132;2023-02-01T15:03:39;5.00;;;1.90;;
8177;SDS011;4130;48.740;9.132;2023-02-01T15:06:22;7.20;;;2.00;;
8177;SDS011;4130;48.740;9.132;2023-02-01T15:08:53;5.30;;;1.77;;
8177;SDS011;4130;48.740;9.132;2023-02-01T15:11:23;4.20;;;1.53;;
8177;SDS011;4130;48.740;9.132;2023-02-01T15:13:51;5.53;;;1.80;;
8177;SDS011;4130;48.740;9.132;2023-02-01T15:16:20;4.73;;;1.70;;
8177;SDS011;4130;48.740;9.132;2023-02-01T15:18:49;9.70;;;1.73;;
8177;SDS011;4130;48.740;9.132;2023-02-01T15:21:17;7.17;;;1.50;;
8177;SDS011;4130;48.740;9.132;2023-02-01T15:23:45;3.73;;;1.70;;
8177;SDS011;4130;48.740;9.132;2023-02-01T15:26:25;6.23;;;1.77;;
8177;SDS011;4130;48.740;9.132;2023-02-01T15:28:53;6.03;;;1.47;;
8177;SDS011;4130;48.740;9.132;2023-02-01T15:31:31;2.90;;;1.47;;
8177;SDS011;4130;48.740;9.132;2023-02-01T15:33:59;7.33;;;1.73;;
8177;SDS011;4130;48.740;9.132;2023-02-01T15:36:26;2.40;;;1.30;;
8177;SDS011;4130;48.740;9.132;2023-02-01T15:41:44;9.67;;;1.87;;
8177;SDS011;4130;48.740;9.132;2023-02-01T15:44:15;9.93;;;2.30;;
8177;SDS011;4130;48.740;9.132;2023-02-01T15:46:48;10.97;;;1.53;;
8177;SDS011;4130;48.740;9.132;2023-02-01T15:49:18;5.57;;;1.37;;
8177;SDS011;4130;48.740;9.132;2023-02-01T15:51:48;6.80;;;1.40;;
8177;SDS011;4130;48.740;9.132;2023-02-01T15:54:16;7.13;;;1.70;;
8177;SDS011;4130;48.740;9.132;2023-02-01T15:56:49;9.07;;;1.67;;
8177;SDS011;4130;48.740;9.132;2023-02-01T15:59:19;8.73;;;2.27;;
8177;SDS011;4130;48.740;9.132;2023-02-01T16:01:48;4.37;;;1.73;;
8177;SDS011;4130;48.740;9.132;2023-02-01T16:04:16;2.50;;;1.40;;
8177;SDS011;4130;48.740;9.132;2023-02-01T16:06:46;5.50;;;1.33;;
8177;SDS011;4130;48.740;9.132;2023-02-01T16:09:16;4.93;;;1.53;;
8177;SDS011;4130;48.740;9.132;2023-02-01T16:11:52;3.47;;;1.60;;
8177;SDS011;4130;48.740;9.132;2023-02-01T16:14:20;7.17;;;1.57;;
8177;SDS011;4130;48.740;9.132;2023-02-01T16:16:48;6.67;;;1.53;;